Time;durP1;ratioP1;P1;durP2;ratioP2;P2;SDS_P1;SDS_P2;PMS_P1;PMS_P2;Temp;Humidity;BMP_temperature;BMP_pressure;BME280_temperature;BME280_humidity;BME280_pressure;Samples;Min_cycle;Max_cycle;Signal;HPM_P1;HPM_P2
2024/01/28 00:00:30;;;;;;;;;;;1.90;99.90;;;;;;5042919;28;19921;-59
2024/01/28 00:02:58;;;;;;;;;;;1.90;99.90;;;;;;5041980;28;20083;-63
2024/01/28 00:05:23;;;;;;;;;;;1.90;99.90;;;;;;5023895;28;20633;-61
2024/01/28 00:07:49;;;;;;;;;;;1.90;99.90;;;;;;5039609;28;20509;-63
2024/01/28 00:10:14;;;;;;;;;;;1.80;99.90;;;;;;5043304;28;19956;-60
2024/01/28 00:12:40;;;;;;;;;;;1.80;99.90;;;;;;5042787;28;19917;-60
2024/01/28 00:15:06;;;;;;;;;;;1.90;99.90;;;;;;5044093;28;19975;-62
2024/01/28 00:17:32;;;;;;;;;;;1.80;99.90;;;;;;5035696;28;19916;-61
2024/01/28 00:19:57;;;;;;;;;;;1.80;99.90;;;;;;5036630;28;19921;-63
2024/01/28 00:22:23;;;;;;;;;;;1.80;99.90;;;;;;5041208;28;20003;-61
2024/01/28 00:24:50;;;;;;;;;;;1.70;99.90;;;;;;5045288;28;19925;-62
2024/01/28 00:27:15;;;;;;;;;;;1.70;99.90;;;;;;5042147;28;19920;-63
2024/01/28 00:29:41;;;;;;;;;;;1.70;99.90;;;;;;5044169;28;19925;-63
2024/01/28 00:32:06;;;;;;;;;;;1.70;99.90;;;;;;5041526;28;19943;-63
2024/01/28 00:34:32;;;;;;;;;;;1.70;99.90;;;;;;5042193;28;20677;-62
2024/01/28 00:36:58;;;;;;;;;;;1.70;99.90;;;;;;5033316;28;19928;-63
2024/01/28 00:39:24;;;;;;;;;;;1.70;99.90;;;;;;5045916;28;19920;-61
2024/01/28 00:41:50;;;;;;;;;;;1.70;99.90;;;;;;5042239;28;20307;-62
2024/01/28 00:44:16;;;;;;;;;;;1.70;99.90;;;;;;5044830;28;19927;-62
2024/01/28 00:46:41;;;;;;;;;;;1.70;99.90;;;;;;5043849;28;20244;-63
2024/01/28 00:49:07;;;;;;;;;;;1.70;99.90;;;;;;5042701;28;20715;-63
2024/01/28 00:51:33;;;;;;;;;;;1.70;99.90;;;;;;5052202;28;20353;-61
2024/01/28 00:53:59;;;;;;;;;;;1.70;99.90;;;;;;5045619;28;19917;-63
2024/01/28 00:56:25;;;;;;;;;;;1.70;99.90;;;;;;5044268;28;19997;-63
2024/01/28 00:58:50;;;;;;;;;;;1.70;99.90;;;;;;5042259;28;20019;-63
2024/01/28 01:01:18;;;;;;;;;;;1.60;99.90;;;;;;5051637;28;19920;-63
2024/01/28 01:03:43;;;;;;;;;;;1.70;99.90;;;;;;5043925;28;19943;-61
2024/01/28 01:06:09;;;;;;;;;;;1.70;99.90;;;;;;5040503;28;19921;-62
2024/01/28 01:08:34;;;;;;;;;;;1.70;99.90;;;;;;5043797;28;19939;-62
2024/01/28 01:11:03;;;;;;;;;;;1.70;99.90;;;;;;5041252;28;19916;-62
2024/01/28 01:13:32;;;;;;;;;;;1.70;99.90;;;;;;5044669;28;19943;-61
2024/01/28 01:15:58;;;;;;;;;;;1.70;99.90;;;;;;5048691;28;19955;-63
2024/01/28 01:18:24;;;;;;;;;;;1.80;99.90;;;;;;5028138;28;20436;-62
2024/01/28 01:20:52;;;;;;;;;;;1.70;99.90;;;;;;5041892;28;19924;-59
2024/01/28 01:23:18;;;;;;;;;;;1.70;99.90;;;;;;5038229;28;19920;-62
2024/01/28 01:25:43;;;;;;;;;;;1.70;99.90;;;;;;5043369;28;19924;-61
2024/01/28 01:28:09;;;;;;;;;;;1.70;99.90;;;;;;5042986;28;19917;-61
2024/01/28 01:30:35;;;;;;;;;;;1.70;99.90;;;;;;5046732;28;20015;-61
2024/01/28 01:33:01;;;;;;;;;;;1.70;99.90;;;;;;5044297;28;19924;-63
2024/01/28 01:35:26;;;;;;;;;;;1.70;99.90;;;;;;5041061;28;19920;-63
2024/01/28 01:37:54;;;;;;;;;;;1.70;99.90;;;;;;5041123;28;19921;-63
2024/01/28 01:40:20;;;;;;;;;;;1.70;99.90;;;;;;5044044;28;19921;-62
2024/01/28 01:42:46;;;;;;;;;;;1.70;99.90;;;;;;5042945;28;19975;-63
2024/01/28 01:45:12;;;;;;;;;;;1.80;99.90;;;;;;5041087;28;20405;-63
2024/01/28 01:47:38;;;;;;;;;;;1.80;99.90;;;;;;5043402;28;19925;-61
2024/01/28 01:50:04;;;;;;;;;;;1.80;99.90;;;;;;5041895;28;20287;-62
2024/01/28 01:52:30;;;;;;;;;;;1.80;99.90;;;;;;5042220;28;19927;-62
2024/01/28 01:54:56;;;;;;;;;;;1.80;99.90;;;;;;5042559;28;19921;-63
2024/01/28 01:57:22;;;;;;;;;;;1.80;99.90;;;;;;5039565;28;19960;-63
2024/01/28 01:59:48;;;;;;;;;;;1.80;99.90;;;;;;5041947;28;19920;-63
2024/01/28 02:02:15;;;;;;;;;;;1.80;99.90;;;;;;5045634;28;20544;-63
2024/01/28 02:04:40;;;;;;;;;;;1.80;99.90;;;;;;5042634;28;19963;-61
2024/01/28 02:07:06;;;;;;;;;;;1.80;99.90;;;;;;5044442;28;19916;-63
2024/01/28 02:09:34;;;;;;;;;;;2.20;99.90;;;;;;5045115;28;19954;-60
2024/01/28 02:12:00;;;;;;;;;;;1.80;99.90;;;;;;5021733;28;20339;-62
2024/01/28 02:14:29;;;;;;;;;;;1.80;99.90;;;;;;5036691;28;20579;-61
2024/01/28 02:16:55;;;;;;;;;;;1.80;99.90;;;;;;5041404;28;20375;-60
2024/01/28 02:19:20;;;;;;;;;;;1.80;99.90;;;;;;5046058;28;20023;-62
2024/01/28 02:21:46;;;;;;;;;;;1.80;99.90;;;;;;5038741;28;19927;-60
2024/01/28 02:24:15;;;;;;;;;;;1.90;99.90;;;;;;5041133;28;19973;-63
2024/01/28 02:26:40;;;;;;;;;;;1.80;99.90;;;;;;5042462;28;19939;-63
2024/01/28 02:29:06;;;;;;;;;;;1.80;99.90;;;;;;5044249;28;19925;-63
2024/01/28 02:31:31;;;;;;;;;;;1.70;99.90;;;;;;5046284;28;20387;-63
2024/01/28 02:33:58;;;;;;;;;;;1.90;99.90;;;;;;5054544;28;19970;-61
2024/01/28 02:36:24;;;;;;;;;;;1.80;99.90;;;;;;5054508;28;19920;-61
2024/01/28 02:38:49;;;;;;;;;;;1.80;99.90;;;;;;5033223;28;20659;-61
2024/01/28 02:41:15;;;;;;;;;;;1.80;99.90;;;;;;5041269;28;19936;-63
2024/01/28 02:43:40;;;;;;;;;;;1.80;99.90;;;;;;5044481;28;19917;-63
2024/01/28 02:46:06;;;;;;;;;;;1.90;99.90;;;;;;5022745;28;20249;-63
2024/01/28 02:48:31;;;;;;;;;;;1.80;99.90;;;;;;5041773;28;20469;-62
2024/01/28 02:50:57;;;;;;;;;;;1.80;99.90;;;;;;5040799;28;20436;-63
2024/01/28 02:53:22;;;;;;;;;;;2.00;99.90;;;;;;5047605;28;19962;-63
2024/01/28 02:55:49;;;;;;;;;;;1.80;99.90;;;;;;5039608;28;19924;-63
2024/01/28 02:58:16;;;;;;;;;;;1.90;99.90;;;;;;5046374;28;19917;-62
2024/01/28 03:00:41;;;;;;;;;;;1.90;99.90;;;;;;5046487;28;19921;-61
2024/01/28 03:03:07;;;;;;;;;;;1.90;99.90;;;;;;5040546;28;20271;-63
2024/01/28 03:05:33;;;;;;;;;;;1.90;99.90;;;;;;5039334;28;19946;-61
2024/01/28 03:07:58;;;;;;;;;;;1.90;99.90;;;;;;5038412;28;22118;-63
2024/01/28 03:10:24;;;;;;;;;;;2.00;99.90;;;;;;5041397;28;20652;-63
2024/01/28 03:12:49;;;;;;;;;;;2.00;99.90;;;;;;5040061;28;19920;-61
2024/01/28 03:15:16;;;;;;;;;;;2.00;99.90;;;;;;5038231;28;19968;-61
2024/01/28 03:17:42;;;;;;;;;;;2.00;99.90;;;;;;5044828;28;19912;-63
2024/01/28 03:20:08;;;;;;;;;;;2.10;99.90;;;;;;5037174;28;19928;-63
2024/01/28 03:22:34;;;;;;;;;;;2.10;99.90;;;;;;5039962;28;19924;-61
2024/01/28 03:24:59;;;;;;;;;;;2.10;99.90;;;;;;5037792;28;20382;-63
2024/01/28 03:27:25;;;;;;;;;;;2.10;99.90;;;;;;5036799;28;19929;-62
2024/01/28 03:29:51;;;;;;;;;;;2.10;99.90;;;;;;5038387;28;20438;-60
2024/01/28 03:32:16;;;;;;;;;;;2.20;99.90;;;;;;5037375;28;19948;-62
2024/01/28 03:34:42;;;;;;;;;;;2.20;99.90;;;;;;5037486;28;20059;-60
2024/01/28 03:37:07;;;;;;;;;;;2.20;99.90;;;;;;5036654;28;20059;-61
2024/01/28 03:39:33;;;;;;;;;;;2.20;99.90;;;;;;5040036;28;19920;-63
2024/01/28 03:41:58;;;;;;;;;;;2.20;99.90;;;;;;5036552;28;20019;-63
2024/01/28 03:44:24;;;;;;;;;;;2.20;99.90;;;;;;5037713;28;19974;-63
2024/01/28 03:46:50;;;;;;;;;;;2.20;99.90;;;;;;5037813;28;20010;-62
2024/01/28 03:49:15;;;;;;;;;;;2.20;99.90;;;;;;5038641;28;19924;-62
2024/01/28 03:51:41;;;;;;;;;;;2.20;99.90;;;;;;5036881;28;19917;-61
2024/01/28 03:54:07;;;;;;;;;;;2.10;99.90;;;;;;5037372;28;20390;-62
2024/01/28 03:56:34;;;;;;;;;;;2.10;99.90;;;;;;5041250;28;20418;-62
2024/01/28 03:59:00;;;;;;;;;;;2.10;99.90;;;;;;5040114;28;19925;-62
2024/01/28 04:01:32;;;;;;;;;;;2.10;99.90;;;;;;5031814;28;20045;-61
2024/01/28 04:03:57;;;;;;;;;;;2.10;99.90;;;;;;5044391;28;20900;-60
2024/01/28 04:06:23;;;;;;;;;;;2.10;99.90;;;;;;5041796;28;20246;-63
2024/01/28 04:08:49;;;;;;;;;;;2.00;99.90;;;;;;5040472;28;19966;-63
2024/01/28 04:11:15;;;;;;;;;;;2.00;99.90;;;;;;5035532;28;19923;-63
2024/01/28 04:13:40;;;;;;;;;;;2.00;99.90;;;;;;5041442;28;19925;-63
2024/01/28 04:16:06;;;;;;;;;;;2.00;99.90;;;;;;5042439;28;20303;-59
2024/01/28 04:18:31;;;;;;;;;;;2.00;99.90;;;;;;5040436;28;19921;-63
2024/01/28 04:20:57;;;;;;;;;;;1.90;99.90;;;;;;5041447;28;19920;-63
2024/01/28 04:23:23;;;;;;;;;;;2.00;99.90;;;;;;5038103;28;19948;-63
2024/01/28 04:25:48;;;;;;;;;;;2.00;99.90;;;;;;5025713;28;19925;-60
2024/01/28 04:28:14;;;;;;;;;;;2.00;99.90;;;;;;5042907;28;20452;-63
2024/01/28 04:30:40;;;;;;;;;;;1.90;99.90;;;;;;5038717;28;19916;-63
2024/01/28 04:33:06;;;;;;;;;;;1.90;99.90;;;;;;5041930;28;20490;-61
2024/01/28 04:35:32;;;;;;;;;;;1.90;99.90;;;;;;5049790;28;20012;-60
2024/01/28 04:37:57;;;;;;;;;;;1.90;99.90;;;;;;5049165;28;20509;-63
2024/01/28 04:40:23;;;;;;;;;;;1.90;99.90;;;;;;5025576;28;19929;-63
2024/01/28 04:42:48;;;;;;;;;;;2.00;99.90;;;;;;5040559;28;20465;-63
2024/01/28 04:45:14;;;;;;;;;;;1.90;99.90;;;;;;5044115;28;19920;-63
2024/01/28 04:47:39;;;;;;;;;;;1.90;99.90;;;;;;5041295;28;19917;-62
2024/01/28 04:50:06;;;;;;;;;;;1.90;99.90;;;;;;5046653;28;20306;-63
2024/01/28 04:52:32;;;;;;;;;;;1.90;99.90;;;;;;5045718;28;19916;-63
2024/01/28 04:54:57;;;;;;;;;;;1.90;99.90;;;;;;5047020;28;19920;-61
2024/01/28 04:57:22;;;;;;;;;;;1.90;99.90;;;;;;5043769;28;19921;-61
2024/01/28 04:59:48;;;;;;;;;;;1.90;99.90;;;;;;5045818;28;19920;-61
2024/01/28 05:02:13;;;;;;;;;;;1.90;99.90;;;;;;5042256;28;20556;-61
2024/01/28 05:04:39;;;;;;;;;;;1.90;99.90;;;;;;5027176;28;20256;-62
2024/01/28 05:07:05;;;;;;;;;;;1.80;99.90;;;;;;5043241;28;19920;-63
2024/01/28 05:09:31;;;;;;;;;;;1.90;99.90;;;;;;5043885;28;19956;-60
2024/01/28 05:11:56;;;;;;;;;;;1.90;99.90;;;;;;5044020;28;20363;-63
2024/01/28 05:14:22;;;;;;;;;;;1.80;99.90;;;;;;5043187;28;19921;-62
2024/01/28 05:16:49;;;;;;;;;;;1.90;99.90;;;;;;5043729;28;19920;-62
2024/01/28 05:19:14;;;;;;;;;;;1.80;99.90;;;;;;5042002;28;19952;-63
2024/01/28 05:21:40;;;;;;;;;;;1.80;99.90;;;;;;5044500;28;19923;-61
2024/01/28 05:24:06;;;;;;;;;;;1.80;99.90;;;;;;5044036;28;19920;-61
2024/01/28 05:26:32;;;;;;;;;;;1.80;99.90;;;;;;5042226;28;20024;-60
2024/01/28 05:29:05;;;;;;;;;;;1.80;99.90;;;;;;5046011;28;20028;-63
2024/01/28 05:31:31;;;;;;;;;;;1.70;99.90;;;;;;5045613;28;19959;-60
2024/01/28 05:33:56;;;;;;;;;;;1.80;99.90;;;;;;5042168;28;20367;-62
2024/01/28 05:36:22;;;;;;;;;;;1.80;99.90;;;;;;5040209;28;19984;-63
2024/01/28 05:38:47;;;;;;;;;;;1.70;99.90;;;;;;5038644;28;19928;-62
2024/01/28 05:41:14;;;;;;;;;;;1.70;99.90;;;;;;5041653;28;19963;-63
2024/01/28 05:43:39;;;;;;;;;;;1.70;99.90;;;;;;5042437;28;19932;-63
2024/01/28 05:46:05;;;;;;;;;;;1.70;99.90;;;;;;5040005;28;20287;-62
2024/01/28 05:48:31;;;;;;;;;;;1.70;99.90;;;;;;5037870;28;19923;-60
2024/01/28 05:50:56;;;;;;;;;;;1.70;99.90;;;;;;5043985;28;19921;-63
2024/01/28 05:53:25;;;;;;;;;;;1.70;99.90;;;;;;5045197;28;20275;-63
2024/01/28 05:55:52;;;;;;;;;;;1.70;99.90;;;;;;5046158;28;20369;-61
2024/01/28 05:58:17;;;;;;;;;;;1.70;99.90;;;;;;5043018;28;19924;-63
2024/01/28 06:00:43;;;;;;;;;;;1.60;99.90;;;;;;5049003;28;19916;-62
2024/01/28 06:03:09;;;;;;;;;;;1.60;99.90;;;;;;5023347;28;19935;-63
2024/01/28 06:05:34;;;;;;;;;;;1.60;99.90;;;;;;5038620;28;20384;-63
2024/01/28 06:08:00;;;;;;;;;;;1.60;99.90;;;;;;5047630;28;19921;-63
2024/01/28 06:10:26;;;;;;;;;;;1.60;99.90;;;;;;5044948;28;19924;-63
2024/01/28 06:12:51;;;;;;;;;;;1.60;99.90;;;;;;5021387;28;19999;-61
2024/01/28 06:15:17;;;;;;;;;;;1.50;99.90;;;;;;5042026;28;19928;-61
2024/01/28 06:17:42;;;;;;;;;;;1.50;99.90;;;;;;5042998;28;20015;-60
2024/01/28 06:20:08;;;;;;;;;;;1.50;99.90;;;;;;5042600;28;19956;-63
2024/01/28 06:22:33;;;;;;;;;;;1.50;99.90;;;;;;5041771;28;20043;-63
2024/01/28 06:25:00;;;;;;;;;;;1.40;99.90;;;;;;5038863;28;20387;-63
2024/01/28 06:27:25;;;;;;;;;;;1.40;99.90;;;;;;5040503;28;19917;-61
2024/01/28 06:29:51;;;;;;;;;;;1.40;99.90;;;;;;5040609;28;19912;-62
2024/01/28 06:32:17;;;;;;;;;;;1.40;99.90;;;;;;5042452;28;19925;-61
2024/01/28 06:34:44;;;;;;;;;;;1.30;99.90;;;;;;5048112;28;19917;-63
2024/01/28 06:37:09;;;;;;;;;;;1.30;99.90;;;;;;5041684;28;19921;-62
2024/01/28 06:39:35;;;;;;;;;;;1.30;99.90;;;;;;5042276;28;20371;-60
2024/01/28 06:42:00;;;;;;;;;;;1.30;99.90;;;;;;5039774;28;19927;-63
2024/01/28 06:44:26;;;;;;;;;;;1.30;99.90;;;;;;5038651;28;19924;-59
2024/01/28 06:46:52;;;;;;;;;;;1.30;99.90;;;;;;5045188;28;19920;-63
2024/01/28 06:49:17;;;;;;;;;;;1.30;99.90;;;;;;5044355;28;19925;-62
2024/01/28 06:51:43;;;;;;;;;;;1.30;99.90;;;;;;5049016;28;20416;-63
2024/01/28 06:54:10;;;;;;;;;;;1.30;99.90;;;;;;5051903;28;19924;-62
2024/01/28 06:56:36;;;;;;;;;;;1.20;99.90;;;;;;5053852;28;21140;-60
2024/01/28 06:59:01;;;;;;;;;;;1.30;99.90;;;;;;5059586;28;19912;-63
2024/01/28 07:01:27;;;;;;;;;;;1.30;99.90;;;;;;5055641;28;19924;-63
2024/01/28 07:03:52;;;;;;;;;;;1.30;99.90;;;;;;5053885;28;19924;-62
2024/01/28 07:06:18;;;;;;;;;;;1.30;99.90;;;;;;5052621;28;20287;-61
2024/01/28 07:08:44;;;;;;;;;;;1.30;99.90;;;;;;5052377;28;19939;-63
2024/01/28 07:11:10;;;;;;;;;;;1.20;99.90;;;;;;5032691;28;19959;-62
2024/01/28 07:13:36;;;;;;;;;;;1.20;99.90;;;;;;5052913;28;19921;-62
2024/01/28 07:16:01;;;;;;;;;;;1.30;99.90;;;;;;5050417;28;20515;-63
2024/01/28 07:18:27;;;;;;;;;;;1.20;99.90;;;;;;5053428;28;19920;-63
2024/01/28 07:20:52;;;;;;;;;;;1.20;99.90;;;;;;5052531;28;20678;-63
2024/01/28 07:23:18;;;;;;;;;;;1.20;99.90;;;;;;5055782;28;19925;-63
2024/01/28 07:25:44;;;;;;;;;;;1.20;99.90;;;;;;5054428;28;20279;-63
2024/01/28 07:28:09;;;;;;;;;;;1.10;99.90;;;;;;5055712;28;19991;-63
2024/01/28 07:30:35;;;;;;;;;;;1.10;99.90;;;;;;5055601;28;20061;-63
2024/01/28 07:33:00;;;;;;;;;;;1.10;99.90;;;;;;5054681;28;19966;-62
2024/01/28 07:35:26;;;;;;;;;;;1.10;99.90;;;;;;5058949;28;19985;-64
2024/01/28 07:37:52;;;;;;;;;;;1.20;99.90;;;;;;5036441;28;19974;-62
2024/01/28 07:40:17;;;;;;;;;;;1.10;99.90;;;;;;5056669;28;19924;-61
2024/01/28 07:42:43;;;;;;;;;;;1.10;99.90;;;;;;5058097;28;20001;-63
2024/01/28 07:45:09;;;;;;;;;;;1.10;99.90;;;;;;5050857;28;20814;-63
2024/01/28 07:47:35;;;;;;;;;;;1.00;99.90;;;;;;5052901;28;20015;-63
2024/01/28 07:50:01;;;;;;;;;;;1.10;99.90;;;;;;5059219;28;20260;-63
2024/01/28 07:52:26;;;;;;;;;;;1.10;99.90;;;;;;5055211;28;19928;-63
2024/01/28 07:54:53;;;;;;;;;;;1.10;99.90;;;;;;5050189;28;19978;-62
2024/01/28 07:57:19;;;;;;;;;;;1.10;99.90;;;;;;5052534;28;19987;-63
2024/01/28 07:59:44;;;;;;;;;;;1.20;99.90;;;;;;5056420;28;20446;-61
2024/01/28 08:02:10;;;;;;;;;;;1.20;99.90;;;;;;5049105;28;19928;-63
2024/01/28 08:04:36;;;;;;;;;;;1.20;99.90;;;;;;5043016;28;19921;-63
2024/01/28 08:07:01;;;;;;;;;;;1.20;99.90;;;;;;5051423;28;19963;-63
2024/01/28 08:09:31;;;;;;;;;;;1.20;99.90;;;;;;5049426;28;19921;-63
2024/01/28 08:11:57;;;;;;;;;;;1.20;99.90;;;;;;5054662;28;20348;-63
2024/01/28 08:14:27;;;;;;;;;;;1.40;99.90;;;;;;5060333;28;19916;-63
2024/01/28 08:16:55;;;;;;;;;;;1.20;99.90;;;;;;5052902;28;20019;-63
2024/01/28 08:19:21;;;;;;;;;;;1.20;99.90;;;;;;5045561;28;19923;-60
2024/01/28 08:21:47;;;;;;;;;;;1.30;99.90;;;;;;5042337;28;19928;-62
2024/01/28 08:24:12;;;;;;;;;;;1.30;99.90;;;;;;5042761;28;19921;-62
2024/01/28 08:26:38;;;;;;;;;;;1.30;99.90;;;;;;5055705;28;20061;-61
2024/01/28 08:29:03;;;;;;;;;;;1.20;99.90;;;;;;5051882;28;20460;-64
2024/01/28 08:31:30;;;;;;;;;;;1.30;99.90;;;;;;5051793;28;19917;-63
2024/01/28 08:33:55;;;;;;;;;;;1.30;99.90;;;;;;5050297;28;19926;-63
2024/01/28 08:36:21;;;;;;;;;;;1.30;99.90;;;;;;5054905;28;19924;-63
2024/01/28 08:38:46;;;;;;;;;;;1.40;99.90;;;;;;5054397;28;20382;-61
2024/01/28 08:41:12;;;;;;;;;;;1.40;99.90;;;;;;5056949;28;19916;-63
2024/01/28 08:43:38;;;;;;;;;;;1.40;99.90;;;;;;5053966;28;19948;-63
2024/01/28 08:46:03;;;;;;;;;;;1.40;99.90;;;;;;5050063;28;20374;-61
2024/01/28 08:48:29;;;;;;;;;;;1.50;99.90;;;;;;5052587;28;20011;-63
2024/01/28 08:50:55;;;;;;;;;;;1.50;99.90;;;;;;5052296;28;20450;-60
2024/01/28 08:53:21;;;;;;;;;;;1.60;99.90;;;;;;5055186;28;19916;-63
2024/01/28 08:55:46;;;;;;;;;;;1.60;99.90;;;;;;5054506;28;19924;-62
2024/01/28 08:58:12;;;;;;;;;;;1.70;99.90;;;;;;5050541;28;19916;-63
2024/01/28 09:00:38;;;;;;;;;;;1.80;99.90;;;;;;5049876;28;20339;-63
2024/01/28 09:03:04;;;;;;;;;;;1.80;99.90;;;;;;5051594;28;20456;-63
2024/01/28 09:05:30;;;;;;;;;;;1.80;99.90;;;;;;5046857;28;20371;-63
2024/01/28 09:07:56;;;;;;;;;;;1.90;99.90;;;;;;5047297;28;19913;-63
2024/01/28 09:10:25;;;;;;;;;;;2.00;99.90;;;;;;5053429;28;19916;-63
2024/01/28 09:12:50;;;;;;;;;;;2.00;99.90;;;;;;5048188;28;20594;-63
2024/01/28 09:15:16;;;;;;;;;;;2.10;99.90;;;;;;5050740;28;19931;-62
2024/01/28 09:17:41;;;;;;;;;;;2.20;99.90;;;;;;5051410;28;19921;-61
2024/01/28 09:20:07;;;;;;;;;;;2.30;99.90;;;;;;5055308;28;20025;-61
2024/01/28 09:22:36;;;;;;;;;;;2.30;99.90;;;;;;5040989;28;19916;-63
2024/01/28 09:25:03;;;;;;;;;;;2.40;99.90;;;;;;5046227;28;19921;-61
2024/01/28 09:27:29;;;;;;;;;;;2.50;99.90;;;;;;5050493;28;20370;-63
2024/01/28 09:29:54;;;;;;;;;;;2.60;99.90;;;;;;5049917;28;19921;-63
2024/01/28 09:32:20;;;;;;;;;;;2.70;99.90;;;;;;5048137;28;20047;-63
2024/01/28 09:34:45;;;;;;;;;;;2.90;99.90;;;;;;5052089;28;19928;-61
2024/01/28 09:37:11;;;;;;;;;;;3.00;99.90;;;;;;5041741;28;20008;-63
2024/01/28 09:39:36;;;;;;;;;;;3.20;99.90;;;;;;5048743;28;20317;-63
2024/01/28 09:42:08;;;;;;;;;;;3.30;99.90;;;;;;5025323;28;20854;-61
2024/01/28 09:44:34;;;;;;;;;;;3.50;99.90;;;;;;5055011;28;20703;-63
2024/01/28 09:46:59;;;;;;;;;;;3.70;99.90;;;;;;5017593;28;19924;-63
2024/01/28 09:49:27;;;;;;;;;;;3.80;99.90;;;;;;5046402;28;19998;-62
2024/01/28 09:51:53;;;;;;;;;;;4.00;99.90;;;;;;5050161;28;19916;-63
2024/01/28 09:54:19;;;;;;;;;;;4.10;99.90;;;;;;5047065;28;20188;-62
2024/01/28 09:56:45;;;;;;;;;;;4.20;99.90;;;;;;5054122;28;20442;-61
2024/01/28 09:59:13;;;;;;;;;;;4.30;99.90;;;;;;5053706;28;20037;-63
2024/01/28 10:01:41;;;;;;;;;;;4.40;99.90;;;;;;5052718;28;20479;-61
2024/01/28 10:04:07;;;;;;;;;;;4.40;99.90;;;;;;5026584;28;20468;-62
2024/01/28 10:06:32;;;;;;;;;;;4.40;99.90;;;;;;5021194;28;19928;-62
2024/01/28 10:08:58;;;;;;;;;;;4.40;99.90;;;;;;5016640;28;19964;-63
2024/01/28 10:11:24;;;;;;;;;;;4.40;99.90;;;;;;5027823;28;20487;-62
2024/01/28 10:13:50;;;;;;;;;;;4.40;99.90;;;;;;5026561;28;20461;-64
2024/01/28 10:16:21;;;;;;;;;;;4.30;99.90;;;;;;5019825;28;19921;-62
2024/01/28 10:18:47;;;;;;;;;;;4.30;99.90;;;;;;5014804;28;19920;-62
2024/01/28 10:21:12;;;;;;;;;;;4.20;99.90;;;;;;5005134;28;19929;-61
2024/01/28 10:23:38;;;;;;;;;;;4.30;99.90;;;;;;5016246;28;20007;-64
2024/01/28 10:26:05;;;;;;;;;;;4.40;99.90;;;;;;5013929;28;20019;-62
2024/01/28 10:28:30;;;;;;;;;;;4.40;99.90;;;;;;5009700;28;20465;-63
2024/01/28 10:30:56;;;;;;;;;;;4.60;99.90;;;;;;5020856;28;19929;-62
2024/01/28 10:33:21;;;;;;;;;;;4.80;99.90;;;;;;5026561;28;19920;-62
2024/01/28 10:35:47;;;;;;;;;;;5.00;99.90;;;;;;5032659;28;19928;-62
2024/01/28 10:38:16;;;;;;;;;;;5.10;99.90;;;;;;5028290;28;19916;-63
2024/01/28 10:40:44;;;;;;;;;;;5.30;99.90;;;;;;5025963;28;19923;-61
2024/01/28 10:43:11;;;;;;;;;;;5.50;99.90;;;;;;5021592;28;20323;-63
2024/01/28 10:45:38;;;;;;;;;;;5.60;99.90;;;;;;5012289;28;19951;-60
2024/01/28 10:48:05;;;;;;;;;;;5.70;99.90;;;;;;5001523;28;19921;-62
2024/01/28 10:50:32;;;;;;;;;;;5.80;99.90;;;;;;5014159;28;19955;-63
2024/01/28 10:52:59;;;;;;;;;;;5.90;99.90;;;;;;5014215;28;19925;-62
2024/01/28 10:55:24;;;;;;;;;;;6.10;99.90;;;;;;5018562;28;20283;-61
2024/01/28 10:57:51;;;;;;;;;;;6.20;99.90;;;;;;5017360;28;19913;-63
2024/01/28 11:00:20;;;;;;;;;;;6.40;99.90;;;;;;5021460;28;20337;-61
2024/01/28 11:02:46;;;;;;;;;;;6.50;99.90;;;;;;5027830;28;20454;-63
2024/01/28 11:05:13;;;;;;;;;;;6.60;99.90;;;;;;5035516;28;19925;-63
2024/01/28 11:07:38;;;;;;;;;;;6.70;99.90;;;;;;5030506;28;19932;-61
2024/01/28 11:10:05;;;;;;;;;;;6.80;99.90;;;;;;5036984;28;20379;-63
2024/01/28 11:12:30;;;;;;;;;;;6.90;99.90;;;;;;5035564;28;19996;-61
2024/01/28 11:15:00;;;;;;;;;;;7.00;99.90;;;;;;5037430;28;20535;-61
2024/01/28 11:17:35;;;;;;;;;;;7.20;99.90;;;;;;5036676;28;20272;-63
2024/01/28 11:20:16;;;;;;;;;;;7.30;99.90;;;;;;5034093;28;19916;-60
2024/01/28 11:22:51;;;;;;;;;;;7.40;99.90;;;;;;5033036;28;20436;-62
2024/01/28 11:25:19;;;;;;;;;;;7.50;99.90;;;;;;5032191;28;19980;-62
2024/01/28 11:27:45;;;;;;;;;;;7.60;99.90;;;;;;5033315;28;19928;-62
2024/01/28 11:30:11;;;;;;;;;;;7.80;99.90;;;;;;5035920;28;20015;-63
2024/01/28 11:32:36;;;;;;;;;;;7.80;99.90;;;;;;5038130;28;20385;-62
2024/01/28 11:35:02;;;;;;;;;;;7.90;99.90;;;;;;5037117;28;19964;-63
2024/01/28 11:37:29;;;;;;;;;;;7.90;99.90;;;;;;5034384;28;20350;-62
2024/01/28 11:40:03;;;;;;;;;;;7.90;99.90;;;;;;5035768;28;20261;-60
2024/01/28 11:42:29;;;;;;;;;;;7.90;99.90;;;;;;5036729;28;19921;-63
2024/01/28 11:44:55;;;;;;;;;;;8.00;99.90;;;;;;5041131;28;20036;-62
2024/01/28 11:47:21;;;;;;;;;;;8.10;99.90;;;;;;5034651;28;19924;-63
2024/01/28 11:49:48;;;;;;;;;;;8.10;99.90;;;;;;5036205;28;20271;-62
2024/01/28 11:52:13;;;;;;;;;;;8.20;99.90;;;;;;5034575;28;19916;-62
2024/01/28 11:54:43;;;;;;;;;;;8.20;99.90;;;;;;5036624;28;19924;-63
2024/01/28 11:57:08;;;;;;;;;;;8.20;99.90;;;;;;5041967;28;19920;-63
2024/01/28 11:59:35;;;;;;;;;;;8.40;99.90;;;;;;5044084;28;19923;-62
2024/01/28 12:02:03;;;;;;;;;;;8.40;99.90;;;;;;5044222;28;19928;-61
2024/01/28 12:04:30;;;;;;;;;;;8.40;99.90;;;;;;5038526;28;19924;-62
2024/01/28 12:06:55;;;;;;;;;;;8.40;99.90;;;;;;5034263;28;19916;-62
2024/01/28 12:09:21;;;;;;;;;;;8.30;99.90;;;;;;5036668;28;19927;-61
2024/01/28 12:11:46;;;;;;;;;;;8.30;99.90;;;;;;5038339;28;20325;-63
2024/01/28 12:14:12;;;;;;;;;;;8.30;99.90;;;;;;5043598;28;19995;-63
2024/01/28 12:16:37;;;;;;;;;;;8.30;99.90;;;;;;5036103;28;19916;-63
2024/01/28 12:19:03;;;;;;;;;;;8.30;99.90;;;;;;5036111;28;20510;-62
2024/01/28 12:21:28;;;;;;;;;;;8.30;99.90;;;;;;5037687;28;19935;-63
2024/01/28 12:23:57;;;;;;;;;;;8.30;99.90;;;;;;5041850;28;19921;-60
2024/01/28 12:26:23;;;;;;;;;;;8.30;99.90;;;;;;5021853;28;19928;-60
2024/01/28 12:28:49;;;;;;;;;;;8.30;99.90;;;;;;5044524;28;19991;-63
2024/01/28 12:31:15;;;;;;;;;;;8.40;99.90;;;;;;5039609;28;20538;-63
2024/01/28 12:33:43;;;;;;;;;;;8.50;99.90;;;;;;5038863;28;19994;-63
2024/01/28 12:36:09;;;;;;;;;;;8.50;99.90;;;;;;5039729;28;19921;-63
2024/01/28 12:38:34;;;;;;;;;;;8.60;99.90;;;;;;5039229;28;19928;-62
2024/01/28 12:41:00;;;;;;;;;;;8.70;99.90;;;;;;5021397;28;19920;-63
2024/01/28 12:43:25;;;;;;;;;;;8.80;99.90;;;;;;5043378;28;20310;-63
2024/01/28 12:45:51;;;;;;;;;;;8.90;99.90;;;;;;5039531;28;19925;-62
2024/01/28 12:48:17;;;;;;;;;;;8.90;99.90;;;;;;5041802;28;19970;-61
2024/01/28 12:50:43;;;;;;;;;;;9.00;99.90;;;;;;5039048;28;19916;-61
2024/01/28 12:53:09;;;;;;;;;;;9.10;99.90;;;;;;5042243;28;19917;-63
2024/01/28 12:55:34;;;;;;;;;;;9.10;99.90;;;;;;5040928;28;19923;-61
2024/01/28 12:58:00;;;;;;;;;;;9.30;99.90;;;;;;5023152;28;20015;-62
2024/01/28 13:00:25;;;;;;;;;;;9.40;99.90;;;;;;5049673;28;20354;-63
2024/01/28 13:02:51;;;;;;;;;;;9.60;99.90;;;;;;5013710;28;20150;-62
2024/01/28 13:05:17;;;;;;;;;;;9.70;99.90;;;;;;5036331;28;20477;-63
2024/01/28 13:07:42;;;;;;;;;;;9.80;99.90;;;;;;5039985;28;19936;-63
2024/01/28 13:10:09;;;;;;;;;;;9.80;99.90;;;;;;5023017;28;19975;-62
2024/01/28 13:12:38;;;;;;;;;;;10.00;99.90;;;;;;5040251;28;19913;-62
2024/01/28 13:15:07;;;;;;;;;;;10.10;99.90;;;;;;5040729;28;19916;-63
2024/01/28 13:17:36;;;;;;;;;;;10.20;99.90;;;;;;5038658;28;20029;-60
2024/01/28 13:20:03;;;;;;;;;;;10.20;99.90;;;;;;5036078;28;19912;-63
2024/01/28 13:22:29;;;;;;;;;;;10.30;99.90;;;;;;5039195;28;20007;-63
2024/01/28 13:24:55;;;;;;;;;;;10.30;99.90;;;;;;5043054;28;19921;-63
2024/01/28 13:27:21;;;;;;;;;;;10.30;99.90;;;;;;5046669;28;20359;-62
2024/01/28 13:29:47;;;;;;;;;;;10.40;99.90;;;;;;5048141;28;20363;-62
2024/01/28 13:32:12;;;;;;;;;;;10.50;99.90;;;;;;5043895;28;19921;-62
2024/01/28 13:34:38;;;;;;;;;;;10.50;99.90;;;;;;5042392;28;20036;-61
2024/01/28 13:37:03;;;;;;;;;;;10.50;99.90;;;;;;5040041;28;19944;-62
2024/01/28 13:39:29;;;;;;;;;;;10.60;99.90;;;;;;5055204;28;20004;-63
2024/01/28 13:41:55;;;;;;;;;;;10.60;99.90;;;;;;5058870;28;20045;-63
2024/01/28 13:44:21;;;;;;;;;;;10.50;99.90;;;;;;5055248;28;19917;-63
2024/01/28 13:46:46;;;;;;;;;;;10.50;99.90;;;;;;5055749;28;19924;-63
2024/01/28 13:49:12;;;;;;;;;;;10.50;99.90;;;;;;5058122;28;20353;-64
2024/01/28 13:51:38;;;;;;;;;;;10.40;99.90;;;;;;5052515;28;20013;-61
2024/01/28 13:54:03;;;;;;;;;;;10.40;99.90;;;;;;5042323;28;20362;-63
2024/01/28 13:56:31;;;;;;;;;;;10.30;99.90;;;;;;5045117;28;19955;-63
2024/01/28 13:58:57;;;;;;;;;;;10.20;99.90;;;;;;5043202;28;19936;-64
2024/01/28 14:01:26;;;;;;;;;;;10.10;99.90;;;;;;5046689;28;19944;-63
2024/01/28 14:03:52;;;;;;;;;;;10.00;99.90;;;;;;5041757;28;20474;-63
2024/01/28 14:06:18;;;;;;;;;;;9.90;99.90;;;;;;5045161;28;19925;-61
2024/01/28 14:08:44;;;;;;;;;;;9.70;99.90;;;;;;5040537;28;19928;-61
2024/01/28 14:11:09;;;;;;;;;;;9.60;99.90;;;;;;5041370;28;19968;-63
2024/01/28 14:13:35;;;;;;;;;;;9.50;99.90;;;;;;5036783;28;19922;-63
2024/01/28 14:16:00;;;;;;;;;;;9.40;99.90;;;;;;5046513;28;19923;-62
2024/01/28 14:18:26;;;;;;;;;;;9.30;99.90;;;;;;5044901;28;19924;-63
2024/01/28 14:20:51;;;;;;;;;;;9.20;99.90;;;;;;5042593;28;19962;-63